Chadstone Weather > Observations for 03/04/21

Select Day:



Observations
Time Temp Hum DP Wind Gust Dir Rain >9am Press
C % C kph kph mm hPa
00:00 21.4 62 13.8 0.0 0.0 N 0.0 1013.7
00:10 21.4 62 13.8 0.0 0.0 N 0.0 1013.6
00:20 21.4 63 14.1 0.0 0.0 N 0.0 1013.4
00:30 21.3 63 14.0 0.0 0.0 N 0.0 1013.5
00:40 21.2 63 13.9 0.0 0.0 N 0.0 1013.4
00:50 21.0 64 13.9 0.0 0.0 N 0.0 1013.3
01:00 20.8 65 14.0 0.0 0.0 N 0.0 1013.2
01:10 20.6 66 14.0 0.0 0.0 N 0.0 1013.1
01:20 20.5 66 13.9 0.0 0.0 N 0.0 1013.0
01:30 20.4 67 14.1 0.0 0.0 N 0.0 1012.9
01:40 20.2 67 13.9 0.0 0.0 N 0.0 1012.9
01:50 20.1 68 14.0 0.0 0.0 N 0.0 1013.0
02:00 20.0 68 13.9 0.0 0.0 N 0.0 1012.8
02:10 19.9 69 14.1 0.0 0.0 N 0.0 1012.8
02:20 19.7 70 14.1 0.0 0.0 N 0.0 1012.7
02:30 19.5 70 13.9 0.0 0.0 N 0.0 1012.8
02:40 19.7 71 14.3 0.0 0.0 N 0.0 1012.5
02:50 19.7 71 14.3 0.0 0.0 N 0.0 1012.4
03:00 19.6 71 14.2 0.0 0.0 N 0.0 1012.3
03:10 19.5 71 14.1 0.0 0.0 N 0.0 1012.2
03:20 19.3 71 13.9 0.0 0.0 N 0.0 1012.1
03:30 19.1 71 13.7 0.0 0.0 N 0.0 1012.1
03:40 19.0 72 13.8 0.0 0.0 N 0.0 1012.0
03:50 19.0 72 13.8 0.0 0.0 N 0.0 1012.0
04:00 19.1 72 13.9 0.0 0.0 N 0.0 1011.9
04:10 19.1 72 13.9 0.0 0.0 N 0.0 1012.0
04:20 19.1 72 13.9 0.0 0.0 N 0.0 1011.8
04:30 19.0 72 13.8 0.0 0.0 N 0.0 1011.9
04:40 19.0 72 13.8 0.0 0.0 N 0.0 1011.8
04:50 18.9 73 14.0 0.0 0.0 N 0.0 1011.8
05:00 18.8 73 13.9 0.0 0.0 N 0.0 1011.8
05:10 18.8 74 14.1 0.0 0.0 N 0.0 1011.8
05:20 18.7 74 14.0 0.0 0.0 N 0.0 1011.9
05:30 18.7 74 14.0 0.0 0.0 N 0.0 1012.0
05:40 18.6 74 13.9 0.0 0.0 N 0.0 1012.1
05:50 18.5 75 14.0 0.0 0.0 N 0.0 1012.2
06:00 18.5 75 14.0 0.0 0.0 N 0.0 1012.3
06:10 18.4 75 13.9 0.0 0.0 N 0.0 1012.3
06:20 18.3 75 13.8 0.0 0.0 N 0.0 1011.6
06:30 18.4 75 13.9 0.0 0.0 N 0.0 1012.1
06:40 18.4 75 13.9 0.0 0.0 N 0.0 1012.1
06:50 18.4 75 13.9 0.0 0.0 N 0.0 1012.3
07:00 18.3 75 13.8 0.0 0.0 N 0.0 1012.3
07:10 18.3 75 13.8 0.0 0.0 N 0.0 1012.4
07:20 18.3 75 13.8 0.0 0.0 N 0.0 1012.0
07:30 18.3 75 13.8 0.0 0.0 N 0.0 1011.6
07:40 18.2 75 13.7 0.0 0.0 N 0.0 1012.3
07:50 18.1 75 13.6 0.0 0.0 N 0.0 1012.5
08:00 18.0 75 13.5 0.0 0.0 N 0.0 1012.6
08:10 18.1 75 13.6 0.0 0.0 N 0.0 1012.8
08:20 18.3 76 14.0 0.0 0.0 N 0.0 1012.8
08:30 18.5 75 14.0 0.0 0.0 N 0.0 1012.9
08:40 18.8 75 14.3 0.0 1.1 N 0.0 1012.8
08:50 19.4 74 14.7 0.0 1.1 N 0.0 1012.8
09:00 19.8 72 14.6 0.0 1.1 N 0.0 1012.7
09:10 20.2 71 14.8 0.0 1.1 N 0.0 1012.8
09:20 20.8 68 14.7 0.0 1.1 NNW 0.0 1012.8
09:30 21.1 66 14.5 0.0 1.1 NNE 0.0 1012.8
09:40 21.6 65 14.8 1.0 14.8 NNW 0.0 1012.7
09:50 22.0 63 14.6 5.8 14.8 NW 0.0 1012.7
10:00 22.5 62 14.9 3.8 14.8 NNW 0.0 1012.8
10:10 23.1 60 14.9 6.1 17.3 N 0.0 1012.6
10:20 23.6 58 14.9 7.8 17.3 NNW 0.0 1012.4
10:30 24.1 57 15.1 7.5 17.3 NNW 0.0 1012.5
10:40 24.6 56 15.3 8.2 20.9 NW 0.0 1012.3
10:50 25.0 55 15.4 7.2 14.8 N 0.0 1012.1
11:00 25.5 54 15.5 7.2 20.9 NNW 0.0 1011.1
11:10 25.8 50 14.6 12.2 31.7 NNW 0.0 1011.1
11:20 25.9 50 14.7 10.3 24.5 NNW 0.0 1011.3
11:30 26.5 48 14.6 9.2 22.0 N 0.0 1011.2
11:40 26.8 48 14.9 9.8 23.4 N 0.0 1011.2
11:50 27.1 46 14.5 7.7 20.9 NNW 0.0 1010.4
12:00 27.3 45 14.3 10.0 20.9 N 0.0 1010.3
12:10 27.6 45 14.6 11.5 25.6 NW 0.0 1011.3
12:20 27.8 45 14.8 11.7 25.6 NW 0.0 1011.5
12:30 28.2 45 15.2 6.9 19.4 NNW 0.0 1011.1
12:40 28.5 45 15.4 9.9 24.5 N 0.0 1010.5
12:50 28.6 45 15.5 12.9 22.0 NW 0.0 1010.1
13:00 28.9 44 15.5 11.3 28.1 NW 0.0 1009.7
13:10 29.2 41 14.6 8.8 25.6 NW 0.0 1009.3
13:20 29.5 42 15.3 9.2 25.6 NNW 0.0 1009.0
13:30 29.6 42 15.4 9.3 27.0 NNW 0.0 1008.8
13:40 29.9 41 15.2 7.2 19.4 NNW 0.0 1008.6
13:50 30.1 40 15.0 7.8 19.4 NW 0.0 1008.5
14:00 30.4 39 14.9 6.1 18.4 NW 0.0 1008.3
14:10 30.7 39 15.2 7.1 20.9 NNW 0.0 1008.0
14:20 30.8 38 14.9 7.8 19.4 N 0.0 1007.9
14:30 30.8 38 14.9 8.9 20.9 NNW 0.0 1007.5
14:40 31.0 37 14.6 8.4 19.4 NW 0.0 1007.8
14:50 31.3 37 14.9 6.4 19.4 NW 0.0 1008.4
15:00 31.3 36 14.5 5.8 15.8 NNW 0.0 1008.2
15:10 31.3 36 14.5 4.8 15.8 NNW 0.0 1008.2
15:20 31.3 34 13.6 7.1 19.4 NW 0.0 1008.1
15:30 31.3 34 13.6 7.2 23.4 WNW 0.0 1008.2
15:40 31.3 34 13.6 6.0 15.8 NW 0.0 1007.9
15:50 31.4 34 13.7 5.2 17.3 NW 0.0 1007.8
16:00 31.4 34 13.7 5.5 19.4 NNW 0.0 1007.8
16:10 31.4 34 13.7 5.8 15.8 NW 0.0 1007.7
16:20 31.4 34 13.7 5.6 15.8 NNW 0.0 1007.7
16:30 31.4 34 13.7 5.5 20.9 NNW 0.0 1007.6
16:40 31.4 34 13.7 2.8 12.2 NW 0.0 1007.5
16:50 31.4 34 13.7 6.9 17.3 NW 0.0 1007.4
17:00 31.3 34 13.6 4.0 12.2 NW 0.0 1007.3
17:10 31.3 33 13.1 4.8 14.8 NW 0.0 1007.1
17:20 31.2 33 13.0 5.6 19.4 NW 0.0 1007.1
17:30 31.1 33 13.0 6.1 17.3 WNW 0.0 1007.2
17:40 31.0 33 12.9 6.1 15.8 WNW 0.0 1007.3
17:50 30.9 34 13.2 2.3 12.2 NNW 0.0 1007.5
18:00 30.8 34 13.2 1.0 7.2 NW 0.0 1007.4
18:10 30.7 34 13.1 1.3 7.2 NW 0.0 1007.5
18:20 30.5 34 12.9 3.3 15.8 NNW 0.0 1007.5
18:30 30.3 35 13.2 3.5 11.2 NNW 0.0 1007.7
18:40 30.0 36 13.3 1.5 9.7 NW 0.0 1007.8
18:50 29.7 38 13.9 0.5 6.1 NNW 0.0 1007.9
19:00 29.4 38 13.6 1.6 7.2 NNW 0.0 1007.8
19:10 29.0 39 13.7 2.2 7.2 N 0.0 1007.9
19:20 28.9 41 14.4 0.7 9.7 NNW 0.0 1007.8
19:30 28.5 42 14.4 1.2 7.2 N 0.0 1007.7
19:40 28.2 43 14.5 1.9 8.6 NNW 0.0 1007.6
19:50 28.1 43 14.4 2.6 12.2 NNW 0.0 1007.7
20:00 27.9 42 13.8 2.7 12.2 NNW 0.0 1007.8
20:10 27.7 42 13.6 2.7 9.7 N 0.0 1007.6
20:20 27.5 42 13.5 3.3 12.2 N 0.0 1007.7
20:30 27.4 43 13.7 3.7 11.2 NNW 0.0 1007.5
20:40 27.2 43 13.6 4.5 9.7 NNE 0.0 1007.9
20:50 27.0 43 13.4 4.0 9.7 N 0.0 1008.0
21:00 26.9 44 13.6 3.6 8.6 NNW 0.0 1008.0
21:10 26.7 44 13.5 2.9 11.2 N 0.0 1008.2
21:20 26.6 44 13.4 3.1 11.2 N 0.0 1008.4
21:30 26.4 45 13.5 2.9 8.6 N 0.0 1008.3
21:40 26.4 45 13.5 1.1 9.7 N 0.0 1008.5
21:50 26.2 45 13.4 0.4 8.6 N 0.0 1008.6
22:00 26.0 46 13.5 0.0 3.6 NNW 0.0 1008.7
22:10 25.8 47 13.7 0.0 5.0 NNE 0.0 1008.6
22:20 25.4 49 13.9 0.0 1.1 N 0.0 1009.2
22:30 24.8 51 14.0 0.4 3.6 W 0.0 1009.5
22:40 24.7 51 13.9 0.9 7.2 W 0.0 1009.5
22:50 24.7 52 14.2 0.7 5.0 WNW 0.0 1009.7
23:00 24.4 53 14.2 0.0 1.1 W 0.0 1009.5
23:10 24.2 54 14.3 0.0 2.5 N 0.0 1009.6
23:20 23.8 56 14.5 0.3 3.6 NE 0.0 1009.2
23:30 23.4 56 14.1 0.7 3.6 NE 0.0 1008.8
23:40 23.4 55 13.9 0.6 5.0 N 0.0 1008.9
23:50 23.4 55 13.9 1.4 5.0 N 0.0 1008.9